No data was retrieved for https://query.yahooapis.com/v1/public/yql?q=select+%2A+from+weather.forecast+where+woeid%3D860853&format=xml&u=c



Visit our other weather sites:

Template documentation
and downloads

And another site



Nearby METAR Reports

   
EBAW - Antwerp
Updated: 21-08-2019 12:20
Clear  
Clear  
   Wind: SW 2.1 m/s
Wind: SW 2.1 m/s
Temperature: 20°C
Dew Point: 8°C
Humidity: 46%
Barometer: 1029 hPa
Visibility: More than 10 km
Cloud details: Clear
EBAW 211020Z 22004KT 140V270 CAVOK 20/08 Q1029 NOSIG
EBLG - Liège
Updated: 21-08-2019 12:20
Few Clouds  
Few Clouds  
   Wind: varies 0.5 m/s
Wind: varies 0.5 m/s
Temperature: 19°C
Dew Point: 9°C
Humidity: 52%
Barometer: 1029 hPa
Clouds: Few Clouds
Visibility: More than 10 km
Cloud details: Few Clouds 3900 ft
EBLG 211020Z VRB01KT 9999 FEW039 19/09 Q1029 NOSIG
EBCV - Mons/Bergen
Updated: 21-08-2019 12:25
Clear  
Clear  
   Wind: varies 1 m/s
Wind: varies 1 m/s
Temperature: 20°C
Dew Point: 8°C
Humidity: 46%
Barometer: 1029 hPa
Clouds: Clear
Visibility: More than 10 km
Cloud details: Clear
EBCV 211025Z AUTO VRB02KT 9999 NCD 20/08 Q1029 BLU
EHBK - Maastricht
Updated: 21-08-2019 12:25
Partly Cloudy  
Partly Cloudy  
   Wind: varies 1.5 m/s
Wind: varies 1.5 m/s
Temperature: 20°C
Dew Point: 10°C
Humidity: 53%
Barometer: 1028 hPa
Clouds: Partly Cloudy
Visibility: More than 10 km
Cloud details: Partly Cloudy 3700 ft
EHBK 211025Z AUTO VRB03KT 9999 SCT037 20/10 Q1028 NOSIG
ELLX - Luxemburg
Updated: 21-08-2019 12:20
Few Clouds  
Few Clouds  
   Wind: varies 2.1 m/s
Wind: varies 2.1 m/s
Temperature: 20°C
Dew Point: 8°C
Humidity: 46%
Barometer: 1029 hPa
Clouds: Few Clouds
Visibility: More than 10 km
Cloud details: Few Clouds 4400 ft
ELLX 211020Z VRB04KT 9999 FEW044 20/08 Q1029 NOSIG
EBOS - Oostende
Updated: 21-08-2019 12:20
Few Clouds  
Few Clouds  
   Wind: West 2.1 m/s
Wind: West 2.1 m/s
Temperature: 20°C
Dew Point: 12°C
Humidity: 60%
Barometer: 1029 hPa
Clouds: Few Clouds
Visibility: More than 10 km
Cloud details: Few Clouds 4000 ft
EBOS 211020Z 28004KT 180V350 9999 FEW040 20/12 Q1029 NOSIG

Script developed by  Saratoga-weather.org Adapted for the template by  Weerstation Leuven

You find our weather info also at:

Weather Underground

Equipment we use:

Weather-station
Davis Vantage Vue

Weather-program
WeatherCat

Provider
one.com

Davis Vantage Vue

WeatherCat

one.com